sensor_id;sensor_type;location;lat;lon;timestamp;temperature;humidity
37806;DHT22;25082;50.870;0.022;2022-07-29T00:00:08;21.60;61.00
37806;DHT22;25082;50.870;0.022;2022-07-29T00:02:34;21.60;61.00
37806;DHT22;25082;50.870;0.022;2022-07-29T00:05:00;21.60;60.90
37806;DHT22;25082;50.870;0.022;2022-07-29T00:07:26;21.60;61.10
37806;DHT22;25082;50.870;0.022;2022-07-29T00:09:52;21.60;60.90
37806;DHT22;25082;50.870;0.022;2022-07-29T00:12:22;21.60;60.90
37806;DHT22;25082;50.870;0.022;2022-07-29T00:14:48;21.60;60.90
37806;DHT22;25082;50.870;0.022;2022-07-29T00:17:14;21.60;61.10
37806;DHT22;25082;50.870;0.022;2022-07-29T00:19:40;21.60;61.10
37806;DHT22;25082;50.870;0.022;2022-07-29T00:22:06;21.60;61.00
37806;DHT22;25082;50.870;0.022;2022-07-29T00:24:32;21.60;61.10
37806;DHT22;25082;50.870;0.022;2022-07-29T00:26:57;21.60;61.10
37806;DHT22;25082;50.870;0.022;2022-07-29T00:29:23;21.60;61.00
37806;DHT22;25082;50.870;0.022;2022-07-29T00:31:49;21.60;60.90
37806;DHT22;25082;50.870;0.022;2022-07-29T00:34:15;21.60;61.00
37806;DHT22;25082;50.870;0.022;2022-07-29T00:36:59;21.60;61.10
37806;DHT22;25082;50.870;0.022;2022-07-29T00:39:25;21.60;61.00
37806;DHT22;25082;50.870;0.022;2022-07-29T00:41:51;21.50;60.90
37806;DHT22;25082;50.870;0.022;2022-07-29T00:44:17;21.60;61.00
37806;DHT22;25082;50.870;0.022;2022-07-29T00:46:43;21.50;61.00
37806;DHT22;25082;50.870;0.022;2022-07-29T00:49:08;21.50;61.00
37806;DHT22;25082;50.870;0.022;2022-07-29T00:51:36;21.50;61.00
37806;DHT22;25082;50.870;0.022;2022-07-29T00:54:03;21.50;61.00
37806;DHT22;25082;50.870;0.022;2022-07-29T00:56:31;21.50;61.00
37806;DHT22;25082;50.870;0.022;2022-07-29T00:58:57;21.50;61.00
37806;DHT22;25082;50.870;0.022;2022-07-29T01:01:24;21.50;61.00
37806;DHT22;25082;50.870;0.022;2022-07-29T01:03:49;21.50;61.00
37806;DHT22;25082;50.870;0.022;2022-07-29T01:06:17;21.50;61.10
37806;DHT22;25082;50.870;0.022;2022-07-29T01:08:43;21.50;61.10
37806;DHT22;25082;50.870;0.022;2022-07-29T01:11:10;21.50;61.00
37806;DHT22;25082;50.870;0.022;2022-07-29T01:13:36;21.50;61.10
37806;DHT22;25082;50.870;0.022;2022-07-29T01:16:15;21.50;61.20
37806;DHT22;25082;50.870;0.022;2022-07-29T01:18:46;21.50;61.10
37806;DHT22;25082;50.870;0.022;2022-07-29T01:24:59;21.50;61.10
37806;DHT22;25082;50.870;0.022;2022-07-29T01:29:47;21.50;61.20
37806;DHT22;25082;50.870;0.022;2022-07-29T01:32:19;21.50;61.20
37806;DHT22;25082;50.870;0.022;2022-07-29T01:35:12;21.50;61.20
37806;DHT22;25082;50.870;0.022;2022-07-29T01:40:13;21.50;61.30
37806;DHT22;25082;50.870;0.022;2022-07-29T01:42:50;21.50;61.20
37806;DHT22;25082;50.870;0.022;2022-07-29T01:45:38;21.40;61.20
37806;DHT22;25082;50.870;0.022;2022-07-29T01:51:29;21.50;61.40
37806;DHT22;25082;50.870;0.022;2022-07-29T01:54:25;21.50;61.30
37806;DHT22;25082;50.870;0.022;2022-07-29T01:56:53;21.40;61.40
37806;DHT22;25082;50.870;0.022;2022-07-29T01:59:21;21.50;61.40
37806;DHT22;25082;50.870;0.022;2022-07-29T02:01:47;21.40;61.40
37806;DHT22;25082;50.870;0.022;2022-07-29T02:04:15;21.40;61.30
37806;DHT22;25082;50.870;0.022;2022-07-29T02:06:43;21.40;61.40
37806;DHT22;25082;50.870;0.022;2022-07-29T02:09:12;21.40;61.40
37806;DHT22;25082;50.870;0.022;2022-07-29T02:11:40;21.40;61.40
37806;DHT22;25082;50.870;0.022;2022-07-29T02:14:12;21.40;61.40
37806;DHT22;25082;50.870;0.022;2022-07-29T02:16:40;21.40;61.40
37806;DHT22;25082;50.870;0.022;2022-07-29T02:19:06;21.40;61.30
37806;DHT22;25082;50.870;0.022;2022-07-29T02:21:34;21.40;61.50
37806;DHT22;25082;50.870;0.022;2022-07-29T02:24:02;21.40;61.50
37806;DHT22;25082;50.870;0.022;2022-07-29T02:26:29;21.40;61.40
37806;DHT22;25082;50.870;0.022;2022-07-29T02:28:57;21.40;61.50
37806;DHT22;25082;50.870;0.022;2022-07-29T02:31:27;21.40;61.50
37806;DHT22;25082;50.870;0.022;2022-07-29T02:33:54;21.40;61.60
37806;DHT22;25082;50.870;0.022;2022-07-29T02:36:22;21.40;61.60
37806;DHT22;25082;50.870;0.022;2022-07-29T02:38:50;21.40;61.60
37806;DHT22;25082;50.870;0.022;2022-07-29T02:41:29;21.40;61.60
37806;DHT22;25082;50.870;0.022;2022-07-29T02:43:58;21.40;61.60
37806;DHT22;25082;50.870;0.022;2022-07-29T02:46:30;21.40;61.60
37806;DHT22;25082;50.870;0.022;2022-07-29T02:49:07;21.40;61.60
37806;DHT22;25082;50.870;0.022;2022-07-29T02:51:44;21.40;61.70
37806;DHT22;25082;50.870;0.022;2022-07-29T02:54:14;21.40;61.60
37806;DHT22;25082;50.870;0.022;2022-07-29T02:56:44;21.40;61.80
37806;DHT22;25082;50.870;0.022;2022-07-29T02:59:14;21.30;61.70
37806;DHT22;25082;50.870;0.022;2022-07-29T03:01:43;21.40;61.70
37806;DHT22;25082;50.870;0.022;2022-07-29T03:04:11;21.30;61.70
37806;DHT22;25082;50.870;0.022;2022-07-29T03:06:41;21.30;61.70
37806;DHT22;25082;50.870;0.022;2022-07-29T03:09:10;21.30;61.80
37806;DHT22;25082;50.870;0.022;2022-07-29T03:11:36;21.40;61.80
37806;DHT22;25082;50.870;0.022;2022-07-29T03:14:04;21.30;61.80
37806;DHT22;25082;50.870;0.022;2022-07-29T03:16:31;21.30;61.80
37806;DHT22;25082;50.870;0.022;2022-07-29T03:18:57;21.30;61.70
37806;DHT22;25082;50.870;0.022;2022-07-29T03:21:23;21.30;61.80
37806;DHT22;25082;50.870;0.022;2022-07-29T03:23:49;21.30;61.90
37806;DHT22;25082;50.870;0.022;2022-07-29T03:26:15;21.40;61.90
37806;DHT22;25082;50.870;0.022;2022-07-29T03:28:40;21.30;61.90
37806;DHT22;25082;50.870;0.022;2022-07-29T03:31:06;21.30;61.90
37806;DHT22;25082;50.870;0.022;2022-07-29T03:33:32;21.30;61.90
37806;DHT22;25082;50.870;0.022;2022-07-29T03:35:58;21.30;61.90
37806;DHT22;25082;50.870;0.022;2022-07-29T03:38:25;21.30;61.90
37806;DHT22;25082;50.870;0.022;2022-07-29T03:40:56;21.30;61.90
37806;DHT22;25082;50.870;0.022;2022-07-29T03:43:23;21.30;61.90
37806;DHT22;25082;50.870;0.022;2022-07-29T03:45:52;21.30;61.90
37806;DHT22;25082;50.870;0.022;2022-07-29T03:48:21;21.30;61.90
37806;DHT22;25082;50.870;0.022;2022-07-29T03:50:48;21.30;62.00
37806;DHT22;25082;50.870;0.022;2022-07-29T03:53:16;21.30;61.90
37806;DHT22;25082;50.870;0.022;2022-07-29T03:55:44;21.30;62.00
37806;DHT22;25082;50.870;0.022;2022-07-29T03:58:11;21.30;62.00
37806;DHT22;25082;50.870;0.022;2022-07-29T04:00:38;21.30;62.00
37806;DHT22;25082;50.870;0.022;2022-07-29T04:03:04;21.30;62.00
37806;DHT22;25082;50.870;0.022;2022-07-29T04:05:30;21.30;62.00
37806;DHT22;25082;50.870;0.022;2022-07-29T04:07:56;21.20;61.90
37806;DHT22;25082;50.870;0.022;2022-07-29T04:10:22;21.30;62.00
37806;DHT22;25082;50.870;0.022;2022-07-29T04:12:51;21.20;62.00
37806;DHT22;25082;50.870;0.022;2022-07-29T04:15:16;21.30;62.00
37806;DHT22;25082;50.870;0.022;2022-07-29T04:17:42;21.20;62.00
37806;DHT22;25082;50.870;0.022;2022-07-29T04:20:09;21.20;62.00
37806;DHT22;25082;50.870;0.022;2022-07-29T04:22:35;21.20;62.00
37806;DHT22;25082;50.870;0.022;2022-07-29T04:25:00;21.20;62.00
37806;DHT22;25082;50.870;0.022;2022-07-29T04:27:26;21.20;62.10
37806;DHT22;25082;50.870;0.022;2022-07-29T04:29:52;21.20;62.00
37806;DHT22;25082;50.870;0.022;2022-07-29T04:32:18;21.20;62.10
37806;DHT22;25082;50.870;0.022;2022-07-29T04:34:43;21.20;62.10
37806;DHT22;25082;50.870;0.022;2022-07-29T04:37:12;21.20;62.10
37806;DHT22;25082;50.870;0.022;2022-07-29T04:39:38;21.20;62.10
37806;DHT22;25082;50.870;0.022;2022-07-29T04:42:04;21.20;62.10
37806;DHT22;25082;50.870;0.022;2022-07-29T04:44:29;21.20;62.20
37806;DHT22;25082;50.870;0.022;2022-07-29T04:46:56;21.20;62.20
37806;DHT22;25082;50.870;0.022;2022-07-29T04:49:22;21.20;62.10
37806;DHT22;25082;50.870;0.022;2022-07-29T04:51:48;21.20;62.20
37806;DHT22;25082;50.870;0.022;2022-07-29T04:54:14;21.20;62.20
37806;DHT22;25082;50.870;0.022;2022-07-29T04:56:40;21.20;62.20
37806;DHT22;25082;50.870;0.022;2022-07-29T04:59:07;21.20;62.20
37806;DHT22;25082;50.870;0.022;2022-07-29T05:01:33;21.20;62.30
37806;DHT22;25082;50.870;0.022;2022-07-29T05:03:59;21.20;62.30
37806;DHT22;25082;50.870;0.022;2022-07-29T05:06:24;21.20;62.20
37806;DHT22;25082;50.870;0.022;2022-07-29T05:08:50;21.20;62.30
37806;DHT22;25082;50.870;0.022;2022-07-29T05:11:16;21.20;62.40
37806;DHT22;25082;50.870;0.022;2022-07-29T05:13:42;21.20;62.40
37806;DHT22;25082;50.870;0.022;2022-07-29T05:16:08;21.20;62.40
37806;DHT22;25082;50.870;0.022;2022-07-29T05:18:34;21.20;62.40
37806;DHT22;25082;50.870;0.022;2022-07-29T05:21:00;21.20;62.40
37806;DHT22;25082;50.870;0.022;2022-07-29T05:23:25;21.20;62.50
37806;DHT22;25082;50.870;0.022;2022-07-29T05:25:51;21.20;62.50
37806;DHT22;25082;50.870;0.022;2022-07-29T05:28:17;21.20;62.50
37806;DHT22;25082;50.870;0.022;2022-07-29T05:30:43;21.20;62.50
37806;DHT22;25082;50.870;0.022;2022-07-29T05:33:10;21.20;62.60
37806;DHT22;25082;50.870;0.022;2022-07-29T05:35:36;21.20;62.60
37806;DHT22;25082;50.870;0.022;2022-07-29T05:38:02;21.20;62.60
37806;DHT22;25082;50.870;0.022;2022-07-29T05:40:28;21.20;62.60
37806;DHT22;25082;50.870;0.022;2022-07-29T05:42:54;21.20;62.70
37806;DHT22;25082;50.870;0.022;2022-07-29T05:45:20;21.20;62.70
37806;DHT22;25082;50.870;0.022;2022-07-29T05:47:46;21.20;62.70
37806;DHT22;25082;50.870;0.022;2022-07-29T05:50:12;21.20;62.70
37806;DHT22;25082;50.870;0.022;2022-07-29T05:52:38;21.20;62.80
37806;DHT22;25082;50.870;0.022;2022-07-29T05:55:04;21.10;62.70
37806;DHT22;25082;50.870;0.022;2022-07-29T05:57:31;21.20;62.80
37806;DHT22;25082;50.870;0.022;2022-07-29T05:59:57;21.20;62.80
37806;DHT22;25082;50.870;0.022;2022-07-29T06:02:23;21.20;62.90
37806;DHT22;25082;50.870;0.022;2022-07-29T06:04:49;21.20;62.90
37806;DHT22;25082;50.870;0.022;2022-07-29T06:07:15;21.20;62.90
37806;DHT22;25082;50.870;0.022;2022-07-29T06:09:42;21.20;62.90
37806;DHT22;25082;50.870;0.022;2022-07-29T06:12:08;21.20;62.90
37806;DHT22;25082;50.870;0.022;2022-07-29T06:14:34;21.20;63.40
37806;DHT22;25082;50.870;0.022;2022-07-29T06:17:00;21.20;62.90
37806;DHT22;25082;50.870;0.022;2022-07-29T06:19:26;21.20;62.90
37806;DHT22;25082;50.870;0.022;2022-07-29T06:21:52;21.20;62.90
37806;DHT22;25082;50.870;0.022;2022-07-29T06:24:18;21.20;62.90
37806;DHT22;25082;50.870;0.022;2022-07-29T06:26:43;21.20;63.50
37806;DHT22;25082;50.870;0.022;2022-07-29T06:29:10;21.20;63.00
37806;DHT22;25082;50.870;0.022;2022-07-29T06:31:36;21.20;63.00
37806;DHT22;25082;50.870;0.022;2022-07-29T06:34:03;21.20;63.00
37806;DHT22;25082;50.870;0.022;2022-07-29T06:36:29;21.20;63.00
37806;DHT22;25082;50.870;0.022;2022-07-29T06:38:55;21.20;63.00
37806;DHT22;25082;50.870;0.022;2022-07-29T06:41:20;21.20;63.00
37806;DHT22;25082;50.870;0.022;2022-07-29T06:43:46;21.10;63.00
37806;DHT22;25082;50.870;0.022;2022-07-29T06:46:16;21.20;63.10
37806;DHT22;25082;50.870;0.022;2022-07-29T06:48:45;21.10;63.10
37806;DHT22;25082;50.870;0.022;2022-07-29T06:51:11;21.20;63.20
37806;DHT22;25082;50.870;0.022;2022-07-29T06:53:38;21.20;63.20
37806;DHT22;25082;50.870;0.022;2022-07-29T06:56:05;21.10;63.10
37806;DHT22;25082;50.870;0.022;2022-07-29T06:58:34;21.20;63.20
37806;DHT22;25082;50.870;0.022;2022-07-29T07:01:02;21.10;63.10
37806;DHT22;25082;50.870;0.022;2022-07-29T07:03:28;21.20;63.20
37806;DHT22;25082;50.870;0.022;2022-07-29T07:05:55;21.20;63.30
37806;DHT22;25082;50.870;0.022;2022-07-29T07:08:21;21.20;63.30
37806;DHT22;25082;50.870;0.022;2022-07-29T07:10:48;21.20;63.30
37806;DHT22;25082;50.870;0.022;2022-07-29T07:13:14;21.20;63.30
37806;DHT22;25082;50.870;0.022;2022-07-29T07:15:43;21.20;63.30
37806;DHT22;25082;50.870;0.022;2022-07-29T07:18:09;21.20;63.30
37806;DHT22;25082;50.870;0.022;2022-07-29T07:20:35;21.20;63.40
37806;DHT22;25082;50.870;0.022;2022-07-29T07:23:02;21.20;63.50
37806;DHT22;25082;50.870;0.022;2022-07-29T07:25:28;21.20;63.40
37806;DHT22;25082;50.870;0.022;2022-07-29T07:27:54;21.20;63.40
37806;DHT22;25082;50.870;0.022;2022-07-29T07:30:20;21.20;63.40
37806;DHT22;25082;50.870;0.022;2022-07-29T07:32:45;21.20;63.50
37806;DHT22;25082;50.870;0.022;2022-07-29T07:35:11;21.20;63.50
37806;DHT22;25082;50.870;0.022;2022-07-29T07:37:38;21.20;63.50
37806;DHT22;25082;50.870;0.022;2022-07-29T07:40:07;21.20;63.50
37806;DHT22;25082;50.870;0.022;2022-07-29T07:42:33;21.20;63.50
37806;DHT22;25082;50.870;0.022;2022-07-29T07:44:59;21.20;63.60
37806;DHT22;25082;50.870;0.022;2022-07-29T07:47:25;21.20;63.60
37806;DHT22;25082;50.870;0.022;2022-07-29T07:49:51;21.20;63.70
37806;DHT22;25082;50.870;0.022;2022-07-29T07:52:18;21.20;63.60
37806;DHT22;25082;50.870;0.022;2022-07-29T07:54:44;21.20;63.70
37806;DHT22;25082;50.870;0.022;2022-07-29T07:57:11;21.20;63.80
37806;DHT22;25082;50.870;0.022;2022-07-29T07:59:37;21.20;63.80
37806;DHT22;25082;50.870;0.022;2022-07-29T08:02:03;21.20;63.70
37806;DHT22;25082;50.870;0.022;2022-07-29T08:04:29;21.20;63.80
37806;DHT22;25082;50.870;0.022;2022-07-29T08:06:56;21.20;63.90
37806;DHT22;25082;50.870;0.022;2022-07-29T08:09:23;21.20;63.80
37806;DHT22;25082;50.870;0.022;2022-07-29T08:11:50;21.20;63.80
37806;DHT22;25082;50.870;0.022;2022-07-29T08:14:16;21.30;64.00
37806;DHT22;25082;50.870;0.022;2022-07-29T08:16:41;21.30;63.90
37806;DHT22;25082;50.870;0.022;2022-07-29T08:19:08;21.20;63.80
37806;DHT22;25082;50.870;0.022;2022-07-29T08:21:35;21.30;63.80
37806;DHT22;25082;50.870;0.022;2022-07-29T08:24:01;21.30;63.80
37806;DHT22;25082;50.870;0.022;2022-07-29T08:26:45;21.30;63.80
37806;DHT22;25082;50.870;0.022;2022-07-29T08:29:11;21.30;63.70
37806;DHT22;25082;50.870;0.022;2022-07-29T08:31:38;21.30;63.90
37806;DHT22;25082;50.870;0.022;2022-07-29T08:34:05;21.30;63.90
37806;DHT22;25082;50.870;0.022;2022-07-29T08:36:31;21.30;63.80
37806;DHT22;25082;50.870;0.022;2022-07-29T08:38:57;21.30;63.90
37806;DHT22;25082;50.870;0.022;2022-07-29T08:41:23;21.30;63.90
37806;DHT22;25082;50.870;0.022;2022-07-29T08:43:49;21.30;63.90
37806;DHT22;25082;50.870;0.022;2022-07-29T08:46:17;21.30;63.90
37806;DHT22;25082;50.870;0.022;2022-07-29T08:48:43;21.30;63.80
37806;DHT22;25082;50.870;0.022;2022-07-29T08:51:17;21.30;63.90
37806;DHT22;25082;50.870;0.022;2022-07-29T08:53:45;21.30;63.80
37806;DHT22;25082;50.870;0.022;2022-07-29T08:56:13;21.30;63.80
37806;DHT22;25082;50.870;0.022;2022-07-29T08:58:40;21.30;63.90
37806;DHT22;25082;50.870;0.022;2022-07-29T09:01:07;21.30;63.90
37806;DHT22;25082;50.870;0.022;2022-07-29T09:03:35;21.30;63.90
37806;DHT22;25082;50.870;0.022;2022-07-29T09:06:03;21.30;64.00
37806;DHT22;25082;50.870;0.022;2022-07-29T09:08:31;21.30;63.90
37806;DHT22;25082;50.870;0.022;2022-07-29T09:10:57;21.40;64.00
37806;DHT22;25082;50.870;0.022;2022-07-29T09:13:25;21.30;63.90
37806;DHT22;25082;50.870;0.022;2022-07-29T09:15:52;21.30;63.90
37806;DHT22;25082;50.870;0.022;2022-07-29T09:18:50;21.30;63.90
37806;DHT22;25082;50.870;0.022;2022-07-29T09:21:17;21.30;63.80
37806;DHT22;25082;50.870;0.022;2022-07-29T09:26:35;21.30;63.90
37806;DHT22;25082;50.870;0.022;2022-07-29T09:29:08;21.30;63.80
37806;DHT22;25082;50.870;0.022;2022-07-29T09:31:37;21.40;63.80
37806;DHT22;25082;50.870;0.022;2022-07-29T09:34:04;21.40;63.80
37806;DHT22;25082;50.870;0.022;2022-07-29T09:36:29;21.40;63.80
37806;DHT22;25082;50.870;0.022;2022-07-29T09:39:02;21.40;63.70
37806;DHT22;25082;50.870;0.022;2022-07-29T09:41:28;21.40;63.50
37806;DHT22;25082;50.870;0.022;2022-07-29T09:43:59;21.40;63.30
37806;DHT22;25082;50.870;0.022;2022-07-29T09:46:25;21.40;63.40
37806;DHT22;25082;50.870;0.022;2022-07-29T09:49:08;21.40;63.20
37806;DHT22;25082;50.870;0.022;2022-07-29T09:51:35;21.40;63.10
37806;DHT22;25082;50.870;0.022;2022-07-29T09:54:01;21.40;62.80
37806;DHT22;25082;50.870;0.022;2022-07-29T09:56:39;21.40;62.80
37806;DHT22;25082;50.870;0.022;2022-07-29T09:59:07;21.40;62.60
37806;DHT22;25082;50.870;0.022;2022-07-29T10:01:32;21.40;62.80
37806;DHT22;25082;50.870;0.022;2022-07-29T10:03:58;21.40;62.70
37806;DHT22;25082;50.870;0.022;2022-07-29T10:06:24;21.40;62.60
37806;DHT22;25082;50.870;0.022;2022-07-29T10:08:50;21.40;62.70
37806;DHT22;25082;50.870;0.022;2022-07-29T10:11:17;21.40;62.50
37806;DHT22;25082;50.870;0.022;2022-07-29T10:13:46;21.40;62.40
37806;DHT22;25082;50.870;0.022;2022-07-29T10:16:13;21.40;62.40
37806;DHT22;25082;50.870;0.022;2022-07-29T10:18:43;21.50;62.40
37806;DHT22;25082;50.870;0.022;2022-07-29T10:21:09;21.50;62.30
37806;DHT22;25082;50.870;0.022;2022-07-29T10:23:36;21.50;62.20
37806;DHT22;25082;50.870;0.022;2022-07-29T10:26:03;21.50;62.00
37806;DHT22;25082;50.870;0.022;2022-07-29T10:28:32;21.50;62.00
37806;DHT22;25082;50.870;0.022;2022-07-29T10:31:05;21.50;60.00
37806;DHT22;25082;50.870;0.022;2022-07-29T10:39:18;21.50;58.60
37806;DHT22;25082;50.870;0.022;2022-07-29T10:44:42;21.60;58.60
37806;DHT22;25082;50.870;0.022;2022-07-29T10:47:23;21.60;58.60
37806;DHT22;25082;50.870;0.022;2022-07-29T10:50:06;21.60;58.80
37806;DHT22;25082;50.870;0.022;2022-07-29T10:52:54;21.60;59.30
37806;DHT22;25082;50.870;0.022;2022-07-29T10:55:39;21.60;59.60
37806;DHT22;25082;50.870;0.022;2022-07-29T10:58:23;21.60;59.60
37806;DHT22;25082;50.870;0.022;2022-07-29T11:00:53;21.60;59.50
37806;DHT22;25082;50.870;0.022;2022-07-29T11:06:07;21.60;59.60
37806;DHT22;25082;50.870;0.022;2022-07-29T11:08:33;21.60;59.50
37806;DHT22;25082;50.870;0.022;2022-07-29T11:11:31;21.60;59.50
37806;DHT22;25082;50.870;0.022;2022-07-29T11:13:57;21.60;59.50
37806;DHT22;25082;50.870;0.022;2022-07-29T11:16:23;21.60;59.60
37806;DHT22;25082;50.870;0.022;2022-07-29T11:21:37;21.60;59.90
37806;DHT22;25082;50.870;0.022;2022-07-29T11:24:36;21.60;60.00
37806;DHT22;25082;50.870;0.022;2022-07-29T11:27:16;21.60;60.10
37806;DHT22;25082;50.870;0.022;2022-07-29T11:30:06;21.60;60.10
37806;DHT22;25082;50.870;0.022;2022-07-29T11:32:38;21.60;60.20
37806;DHT22;25082;50.870;0.022;2022-07-29T11:37:36;21.60;60.20
37806;DHT22;25082;50.870;0.022;2022-07-29T11:45:21;21.60;60.40
37806;DHT22;25082;50.870;0.022;2022-07-29T11:50:18;21.60;60.40
37806;DHT22;25082;50.870;0.022;2022-07-29T11:52:51;21.60;60.60
37806;DHT22;25082;50.870;0.022;2022-07-29T11:55:19;21.60;60.60
37806;DHT22;25082;50.870;0.022;2022-07-29T11:57:56;21.60;59.70
37806;DHT22;25082;50.870;0.022;2022-07-29T12:00:35;21.60;58.70
37806;DHT22;25082;50.870;0.022;2022-07-29T12:03:05;21.70;58.20
37806;DHT22;25082;50.870;0.022;2022-07-29T12:05:34;21.70;58.70
37806;DHT22;25082;50.870;0.022;2022-07-29T12:08:16;21.70;59.00
37806;DHT22;25082;50.870;0.022;2022-07-29T12:10:44;21.70;59.50
37806;DHT22;25082;50.870;0.022;2022-07-29T12:13:12;21.80;60.00
37806;DHT22;25082;50.870;0.022;2022-07-29T12:15:39;21.80;60.00
37806;DHT22;25082;50.870;0.022;2022-07-29T12:18:16;21.80;60.30
37806;DHT22;25082;50.870;0.022;2022-07-29T12:20:42;21.80;60.80
37806;DHT22;25082;50.870;0.022;2022-07-29T12:23:09;21.80;61.00
37806;DHT22;25082;50.870;0.022;2022-07-29T12:25:37;21.90;61.40
37806;DHT22;25082;50.870;0.022;2022-07-29T12:28:06;21.90;61.80
37806;DHT22;25082;50.870;0.022;2022-07-29T12:30:41;21.90;62.10
37806;DHT22;25082;50.870;0.022;2022-07-29T12:35:41;22.00;63.60
37806;DHT22;25082;50.870;0.022;2022-07-29T12:38:10;22.00;63.90
37806;DHT22;25082;50.870;0.022;2022-07-29T12:40:36;22.00;64.60
37806;DHT22;25082;50.870;0.022;2022-07-29T12:43:16;22.10;65.40
37806;DHT22;25082;50.870;0.022;2022-07-29T12:45:44;22.10;65.40
37806;DHT22;25082;50.870;0.022;2022-07-29T12:48:11;22.20;65.50
37806;DHT22;25082;50.870;0.022;2022-07-29T12:50:55;22.20;65.10
37806;DHT22;25082;50.870;0.022;2022-07-29T12:53:21;22.30;64.70
37806;DHT22;25082;50.870;0.022;2022-07-29T12:55:49;22.30;65.50
37806;DHT22;25082;50.870;0.022;2022-07-29T12:58:36;22.40;65.40
37806;DHT22;25082;50.870;0.022;2022-07-29T13:01:10;22.40;65.80
37806;DHT22;25082;50.870;0.022;2022-07-29T13:03:54;22.50;66.00
37806;DHT22;25082;50.870;0.022;2022-07-29T13:06:38;22.50;65.70
37806;DHT22;25082;50.870;0.022;2022-07-29T13:09:05;22.50;65.80
37806;DHT22;25082;50.870;0.022;2022-07-29T13:11:55;22.50;66.00
37806;DHT22;25082;50.870;0.022;2022-07-29T13:14:34;22.50;64.40
37806;DHT22;25082;50.870;0.022;2022-07-29T13:17:17;22.50;64.30
37806;DHT22;25082;50.870;0.022;2022-07-29T13:19:45;22.60;64.30
37806;DHT22;25082;50.870;0.022;2022-07-29T13:22:13;22.60;65.00
37806;DHT22;25082;50.870;0.022;2022-07-29T13:27:21;22.60;65.60
37806;DHT22;25082;50.870;0.022;2022-07-29T13:29:47;22.70;64.50
37806;DHT22;25082;50.870;0.022;2022-07-29T13:32:14;22.70;62.00
37806;DHT22;25082;50.870;0.022;2022-07-29T13:34:40;22.70;61.80
37806;DHT22;25082;50.870;0.022;2022-07-29T13:37:06;22.70;61.60
37806;DHT22;25082;50.870;0.022;2022-07-29T13:39:32;22.70;61.40
37806;DHT22;25082;50.870;0.022;2022-07-29T13:41:58;22.70;61.20
37806;DHT22;25082;50.870;0.022;2022-07-29T13:44:23;22.70;60.70
37806;DHT22;25082;50.870;0.022;2022-07-29T13:46:49;22.70;60.50
37806;DHT22;25082;50.870;0.022;2022-07-29T13:49:15;22.70;61.10
37806;DHT22;25082;50.870;0.022;2022-07-29T13:51:41;22.70;60.50
37806;DHT22;25082;50.870;0.022;2022-07-29T13:54:07;22.70;60.50
37806;DHT22;25082;50.870;0.022;2022-07-29T13:56:33;22.70;60.20
37806;DHT22;25082;50.870;0.022;2022-07-29T13:58:59;22.70;60.00
37806;DHT22;25082;50.870;0.022;2022-07-29T14:01:25;22.70;59.70
37806;DHT22;25082;50.870;0.022;2022-07-29T14:03:53;22.70;59.70
37806;DHT22;25082;50.870;0.022;2022-07-29T14:06:19;22.70;59.60
37806;DHT22;25082;50.870;0.022;2022-07-29T14:08:45;22.70;59.70
37806;DHT22;25082;50.870;0.022;2022-07-29T14:11:10;22.70;59.40
37806;DHT22;25082;50.870;0.022;2022-07-29T14:13:36;22.70;59.60
37806;DHT22;25082;50.870;0.022;2022-07-29T14:16:02;22.70;60.10
37806;DHT22;25082;50.870;0.022;2022-07-29T14:18:28;22.70;59.70
37806;DHT22;25082;50.870;0.022;2022-07-29T14:20:53;22.70;59.80
37806;DHT22;25082;50.870;0.022;2022-07-29T14:23:19;22.70;59.80
37806;DHT22;25082;50.870;0.022;2022-07-29T14:25:45;22.70;60.00
37806;DHT22;25082;50.870;0.022;2022-07-29T14:28:11;22.70;60.00
37806;DHT22;25082;50.870;0.022;2022-07-29T14:30:37;22.70;60.20
37806;DHT22;25082;50.870;0.022;2022-07-29T14:33:03;22.70;60.30
37806;DHT22;25082;50.870;0.022;2022-07-29T14:35:28;22.70;60.20
37806;DHT22;25082;50.870;0.022;2022-07-29T14:37:54;22.70;60.40
37806;DHT22;25082;50.870;0.022;2022-07-29T14:40:20;22.70;60.70
37806;DHT22;25082;50.870;0.022;2022-07-29T14:42:46;22.70;61.00
37806;DHT22;25082;50.870;0.022;2022-07-29T14:45:11;22.70;61.20
37806;DHT22;25082;50.870;0.022;2022-07-29T14:47:38;22.80;61.10
37806;DHT22;25082;50.870;0.022;2022-07-29T14:50:05;22.80;61.40
37806;DHT22;25082;50.870;0.022;2022-07-29T14:52:32;22.70;61.70
37806;DHT22;25082;50.870;0.022;2022-07-29T14:54:58;22.70;61.90
37806;DHT22;25082;50.870;0.022;2022-07-29T14:57:23;22.70;62.20
37806;DHT22;25082;50.870;0.022;2022-07-29T14:59:49;22.70;62.40
37806;DHT22;25082;50.870;0.022;2022-07-29T15:02:16;22.70;62.20
37806;DHT22;25082;50.870;0.022;2022-07-29T15:04:41;22.70;61.90
37806;DHT22;25082;50.870;0.022;2022-07-29T15:07:07;22.70;61.60
37806;DHT22;25082;50.870;0.022;2022-07-29T15:09:33;22.80;61.60
37806;DHT22;25082;50.870;0.022;2022-07-29T15:11:59;22.80;61.60
37806;DHT22;25082;50.870;0.022;2022-07-29T15:14:25;22.80;61.40
37806;DHT22;25082;50.870;0.022;2022-07-29T15:16:51;22.80;61.50
37806;DHT22;25082;50.870;0.022;2022-07-29T15:19:16;22.80;61.50
37806;DHT22;25082;50.870;0.022;2022-07-29T15:21:42;22.80;61.40
37806;DHT22;25082;50.870;0.022;2022-07-29T15:24:08;22.80;61.80
37806;DHT22;25082;50.870;0.022;2022-07-29T15:26:34;22.80;61.80
37806;DHT22;25082;50.870;0.022;2022-07-29T15:28:59;22.80;61.70
37806;DHT22;25082;50.870;0.022;2022-07-29T15:31:25;22.90;62.30
37806;DHT22;25082;50.870;0.022;2022-07-29T15:33:51;22.80;61.50
37806;DHT22;25082;50.870;0.022;2022-07-29T15:36:17;22.80;61.50
37806;DHT22;25082;50.870;0.022;2022-07-29T15:38:42;22.90;62.10
37806;DHT22;25082;50.870;0.022;2022-07-29T15:41:12;22.90;61.60
37806;DHT22;25082;50.870;0.022;2022-07-29T15:43:43;22.90;62.00
37806;DHT22;25082;50.870;0.022;2022-07-29T15:46:16;22.90;62.20
37806;DHT22;25082;50.870;0.022;2022-07-29T15:49:04;22.90;62.10
37806;DHT22;25082;50.870;0.022;2022-07-29T15:51:30;22.90;62.20
37806;DHT22;25082;50.870;0.022;2022-07-29T15:53:56;22.90;62.20
37806;DHT22;25082;50.870;0.022;2022-07-29T15:56:23;22.90;62.60
37806;DHT22;25082;50.870;0.022;2022-07-29T15:58:49;22.90;62.60
37806;DHT22;25082;50.870;0.022;2022-07-29T16:01:15;23.00;62.40
37806;DHT22;25082;50.870;0.022;2022-07-29T16:03:41;22.90;62.40
37806;DHT22;25082;50.870;0.022;2022-07-29T16:06:06;22.90;62.40
37806;DHT22;25082;50.870;0.022;2022-07-29T16:08:32;22.90;62.40
37806;DHT22;25082;50.870;0.022;2022-07-29T16:10:58;23.00;62.30
37806;DHT22;25082;50.870;0.022;2022-07-29T16:13:24;23.00;62.30
37806;DHT22;25082;50.870;0.022;2022-07-29T16:15:50;23.00;62.30
37806;DHT22;25082;50.870;0.022;2022-07-29T16:18:15;23.00;62.30
37806;DHT22;25082;50.870;0.022;2022-07-29T16:20:41;23.00;62.40